KGLD/GLD METAR and TAF weather

Enter ICAO airport designator
Station Type Date Time Source
KGLD METAR 2022/01/29 10:53 UTC NOAA

KGLD 291053Z AUTO 26011KT 10SM CLR M04/M11 A3015 RMK AO2 SLP229 T10391111


Station Type Date Time Source
KGLD Decoded METAR 2022/01/29 10:53 UTC NOAA

GOODLAND RENNER FIELD, KS, United States (KGLD) 39-22N 101-42W 1114M
Jan 29, 2022 - 05:53 AM EST / 2022.01.29 1053 UTC
Wind: from the W (260 degrees) at 13 MPH (11 KT):0
Visibility: 10 mile(s):0
Sky conditions: clear
Temperature: 25.0 F (-3.9 C)
Windchill: 14 F (-10 C):1
Dew Point: 12.0 F (-11.1 C)
Relative Humidity: 57%
Pressure (altimeter): 30.15 in. Hg (1020 hPa)
ob: KGLD 291053Z AUTO 26011KT 10SM CLR M04/M11 A3015 RMK AO2 SLP229 T10391111
cycle: 11

Station Type Date Time Source
KGLD TAF 2022/01/29 12:22 UTC NOAA

TAF KGLD 291120Z 2912/3012 30011KT P6SM SKC
FM300200 27008KT P6SM FEW250

Example: see airport list